Time;durP1;ratioP1;P1;durP2;ratioP2;P2;SDS_P1;SDS_P2;PMS_P1;PMS_P2;Temp;Humidity;BMP_temperature;BMP_pressure;BME280_temperature;BME280_humidity;BME280_pressure;Samples;Min_cycle;Max_cycle;Signal;HPM_P1;HPM_P2
2021/07/03 00:01:49;;;;;;;8.50;4.37;;;15.20;99.70;;;;;;5031964;28;20449;-65
2021/07/03 00:04:16;;;;;;;7.13;3.70;;;15.20;99.70;;;;;;5031989;28;20503;-65
2021/07/03 00:06:42;;;;;;;11.60;4.43;;;15.20;99.70;;;;;;5032285;28;20448;-65
2021/07/03 00:09:10;;;;;;;11.03;4.83;;;15.10;99.70;;;;;;5032212;28;20492;-65
2021/07/03 00:11:37;;;;;;;9.27;4.83;;;15.10;99.70;;;;;;5032083;28;20452;-66
2021/07/03 00:14:04;;;;;;;8.50;3.40;;;15.10;99.70;;;;;;5031865;28;20444;-65
2021/07/03 00:16:31;;;;;;;6.30;3.30;;;15.20;99.70;;;;;;5031882;28;20496;-65
2021/07/03 00:18:57;;;;;;;8.67;3.83;;;15.20;99.70;;;;;;5031969;28;20464;-65
2021/07/03 00:21:24;;;;;;;8.20;3.90;;;15.30;99.70;;;;;;5031920;28;20590;-66
2021/07/03 00:23:51;;;;;;;9.63;4.17;;;15.20;99.70;;;;;;5032040;28;20834;-65
2021/07/03 00:26:19;;;;;;;10.70;3.97;;;15.20;99.70;;;;;;5031614;28;20461;-65
2021/07/03 00:28:46;;;;;;;10.10;4.20;;;15.20;99.70;;;;;;5031786;28;20481;-66
2021/07/03 00:31:12;;;;;;;10.17;4.17;;;15.20;99.70;;;;;;5031792;28;20444;-66
2021/07/03 00:33:39;;;;;;;10.63;4.83;;;15.00;99.70;;;;;;5031976;28;20468;-66
2021/07/03 00:36:06;;;;;;;9.93;4.33;;;15.00;99.70;;;;;;5031247;28;20803;-65
2021/07/03 00:38:33;;;;;;;7.40;3.93;;;15.00;99.70;;;;;;5031711;28;20992;-65
2021/07/03 00:40:59;;;;;;;9.73;3.97;;;15.10;99.70;;;;;;5031649;28;20444;-65
2021/07/03 00:43:27;;;;;;;7.87;4.27;;;15.10;99.70;;;;;;5031453;28;20484;-66
2021/07/03 00:45:54;;;;;;;7.10;3.67;;;15.00;99.70;;;;;;5031152;28;20449;-66
2021/07/03 00:48:21;;;;;;;8.37;3.70;;;14.90;99.70;;;;;;5031632;28;20469;-66
2021/07/03 00:50:48;;;;;;;6.23;3.23;;;14.90;99.70;;;;;;5031562;28;20449;-65
2021/07/03 00:53:16;;;;;;;10.30;4.47;;;14.90;99.70;;;;;;5031054;28;20451;-65
2021/07/03 00:55:45;;;;;;;9.63;4.23;;;14.80;99.70;;;;;;5031112;28;20452;-66
2021/07/03 00:58:12;;;;;;;9.43;4.10;;;14.70;99.70;;;;;;5031193;28;20445;-65
2021/07/03 01:00:40;;;;;;;6.83;4.20;;;14.70;99.70;;;;;;5031287;28;20455;-66
2021/07/03 01:03:07;;;;;;;11.73;4.33;;;14.70;99.70;;;;;;5031347;28;20456;-66
2021/07/03 01:05:34;;;;;;;6.50;3.60;;;14.80;99.70;;;;;;5030964;28;20444;-66
2021/07/03 01:08:00;;;;;;;7.53;4.40;;;14.70;99.70;;;;;;5033103;28;20451;-66
2021/07/03 01:10:29;;;;;;;13.90;4.77;;;14.70;99.70;;;;;;5050780;28;20532;-65
2021/07/03 01:12:57;;;;;;;8.60;4.00;;;14.80;99.70;;;;;;5048582;28;20546;-65
2021/07/03 01:15:24;;;;;;;8.47;4.10;;;14.80;99.70;;;;;;5030604;28;20449;-66
2021/07/03 01:17:52;;;;;;;7.43;3.73;;;14.70;99.70;;;;;;5030929;28;20472;-66
2021/07/03 01:20:19;;;;;;;8.37;3.87;;;14.70;99.70;;;;;;5050414;28;20948;-66
2021/07/03 01:22:48;;;;;;;8.90;4.07;;;14.60;99.70;;;;;;5050381;28;20450;-65
2021/07/03 01:25:16;;;;;;;6.90;3.60;;;14.60;99.70;;;;;;5030411;28;21019;-65
2021/07/03 01:27:43;;;;;;;11.17;4.10;;;14.70;99.70;;;;;;5030535;28;20440;-66
2021/07/03 01:30:12;;;;;;;10.87;4.27;;;14.70;99.70;;;;;;5031007;28;20486;-65
2021/07/03 01:32:39;;;;;;;9.73;4.17;;;14.60;99.70;;;;;;5030618;28;20447;-66
2021/07/03 01:35:07;;;;;;;8.60;4.30;;;14.50;99.70;;;;;;5048308;28;20448;-66
2021/07/03 01:37:34;;;;;;;8.20;3.57;;;14.50;99.70;;;;;;5050557;28;20501;-65
2021/07/03 01:40:03;;;;;;;12.10;4.00;;;14.50;99.70;;;;;;5033477;28;20969;-65
2021/07/03 01:42:29;;;;;;;7.47;3.37;;;14.40;99.70;;;;;;5030512;28;20448;-65
2021/07/03 01:44:56;;;;;;;7.83;5.03;;;14.40;99.70;;;;;;5031440;28;20480;-66
2021/07/03 01:47:23;;;;;;;8.33;4.00;;;14.40;99.70;;;;;;5030557;28;20456;-65
2021/07/03 01:49:49;;;;;;;7.77;3.60;;;14.40;99.70;;;;;;5047456;28;20474;-66
2021/07/03 01:52:18;;;;;;;9.17;3.67;;;14.40;99.70;;;;;;5050285;28;20443;-66
2021/07/03 01:54:45;;;;;;;10.57;4.87;;;14.40;99.70;;;;;;5033017;28;20869;-65
2021/07/03 01:57:13;;;;;;;9.10;3.87;;;14.40;99.70;;;;;;5030310;28;20447;-66
2021/07/03 01:59:40;;;;;;;11.27;4.47;;;14.40;99.70;;;;;;5045277;28;20845;-66
2021/07/03 02:02:07;;;;;;;6.97;3.77;;;14.30;99.70;;;;;;5050121;28;20506;-65
2021/07/03 02:04:33;;;;;;;7.70;3.80;;;14.30;99.70;;;;;;5035738;28;20484;-65
2021/07/03 02:07:00;;;;;;;9.33;4.33;;;14.30;99.70;;;;;;5030306;28;20449;-65
2021/07/03 02:09:27;;;;;;;11.53;4.20;;;14.30;99.70;;;;;;5042206;28;20490;-65
2021/07/03 02:11:54;;;;;;;8.13;3.90;;;14.20;99.70;;;;;;5050135;28;20452;-65
2021/07/03 02:14:22;;;;;;;8.83;3.67;;;14.20;99.70;;;;;;5035209;28;20480;-66
2021/07/03 02:16:49;;;;;;;9.80;3.67;;;14.20;99.70;;;;;;5030221;28;20452;-66
2021/07/03 02:19:16;;;;;;;10.20;3.80;;;14.10;99.70;;;;;;5043198;28;20467;-66
2021/07/03 02:21:43;;;;;;;6.43;2.97;;;14.10;99.70;;;;;;5050359;28;21026;-66
2021/07/03 02:24:10;;;;;;;7.97;3.23;;;14.10;99.70;;;;;;5040294;28;20480;-65
2021/07/03 02:26:36;;;;;;;7.50;3.57;;;14.10;99.70;;;;;;5034442;28;20448;-65
2021/07/03 02:29:03;;;;;;;9.23;4.10;;;14.20;99.70;;;;;;5044323;28;20472;-66
2021/07/03 02:31:31;;;;;;;11.83;4.00;;;14.10;99.70;;;;;;5054143;28;20968;-65
2021/07/03 02:33:58;;;;;;;13.50;4.13;;;14.10;99.70;;;;;;5044570;28;20441;-65
2021/07/03 02:36:25;;;;;;;8.53;3.70;;;14.00;99.70;;;;;;5033890;28;20448;-66
2021/07/03 02:38:52;;;;;;;8.97;3.83;;;14.00;99.70;;;;;;5042606;28;20992;-66
2021/07/03 02:41:19;;;;;;;9.73;3.30;;;14.00;99.70;;;;;;5054000;28;20454;-66
2021/07/03 02:43:45;;;;;;;8.23;3.80;;;14.00;99.70;;;;;;5046171;28;20503;-66
2021/07/03 02:46:12;;;;;;;5.83;3.40;;;14.00;99.70;;;;;;5033605;28;20448;-65
2021/07/03 02:48:40;;;;;;;6.93;3.57;;;13.90;99.70;;;;;;5039466;28;20463;-65
2021/07/03 02:51:07;;;;;;;9.07;3.47;;;13.90;99.70;;;;;;5053779;28;20455;-65
2021/07/03 02:53:34;;;;;;;9.57;4.13;;;13.80;99.70;;;;;;5047966;28;20978;-65
2021/07/03 02:56:01;;;;;;;10.17;3.83;;;13.80;99.70;;;;;;5033349;28;20455;-65
2021/07/03 02:58:28;;;;;;;6.50;3.37;;;13.80;99.70;;;;;;5033549;28;20494;-65
2021/07/03 03:00:55;;;;;;;10.20;4.43;;;13.70;99.70;;;;;;5033680;28;20441;-65
2021/07/03 03:03:21;;;;;;;7.53;3.70;;;13.80;99.70;;;;;;5033668;28;20451;-65
2021/07/03 03:05:49;;;;;;;8.87;3.10;;;13.80;99.70;;;;;;5033146;28;21004;-65
2021/07/03 03:08:16;;;;;;;8.47;4.20;;;13.80;99.70;;;;;;5033603;28;20471;-65
2021/07/03 03:10:43;;;;;;;10.47;4.00;;;13.80;99.70;;;;;;5033579;28;20816;-65
2021/07/03 03:13:10;;;;;;;9.67;4.03;;;13.90;99.70;;;;;;5033370;28;20907;-65
2021/07/03 03:15:36;;;;;;;9.00;3.20;;;13.80;99.70;;;;;;5033114;28;20444;-66
2021/07/03 03:18:03;;;;;;;8.70;3.30;;;13.70;99.70;;;;;;5033110;28;20448;-66
2021/07/03 03:20:30;;;;;;;7.43;4.07;;;13.70;99.70;;;;;;5033339;28;20451;-65
2021/07/03 03:22:58;;;;;;;9.43;3.77;;;13.50;99.70;;;;;;5033009;28;20455;-65
2021/07/03 03:25:25;;;;;;;9.07;3.60;;;13.60;99.70;;;;;;5032771;28;20922;-65
2021/07/03 03:27:51;;;;;;;7.70;3.10;;;13.50;99.70;;;;;;5032848;28;20478;-66
2021/07/03 03:30:19;;;;;;;10.00;3.97;;;13.70;99.70;;;;;;5033221;28;20449;-65
2021/07/03 03:32:45;;;;;;;7.40;3.00;;;13.60;99.70;;;;;;5032927;28;20447;-65
2021/07/03 03:35:13;;;;;;;10.80;3.57;;;13.50;99.70;;;;;;5031654;28;20433;-66
2021/07/03 03:37:39;;;;;;;7.40;4.20;;;13.60;99.70;;;;;;5032875;28;20838;-66
2021/07/03 03:40:09;;;;;;;8.63;4.00;;;13.50;99.70;;;;;;5032886;28;20491;-65
2021/07/03 03:42:35;;;;;;;9.23;3.23;;;13.50;99.70;;;;;;5032796;28;20942;-65
2021/07/03 03:45:02;;;;;;;8.90;3.30;;;13.50;99.70;;;;;;5032326;28;20491;-66
2021/07/03 03:47:29;;;;;;;7.47;3.13;;;13.60;99.70;;;;;;5043612;28;20482;-65
2021/07/03 03:49:56;;;;;;;11.30;4.30;;;13.60;99.70;;;;;;5052496;28;20991;-66
2021/07/03 03:52:22;;;;;;;7.77;3.83;;;13.60;99.70;;;;;;5042071;28;20452;-65
2021/07/03 03:54:49;;;;;;;6.60;3.17;;;13.50;99.70;;;;;;5031563;28;20464;-66
2021/07/03 03:57:23;;;;;;;7.53;3.00;;;13.50;99.70;;;;;;5041037;28;20444;-65
2021/07/03 03:59:51;;;;;;;8.13;3.30;;;13.60;99.70;;;;;;5052387;28;20467;-66
2021/07/03 04:02:18;;;;;;;8.00;3.47;;;13.50;99.70;;;;;;5043589;28;21007;-65
2021/07/03 04:04:45;;;;;;;5.90;3.17;;;13.40;99.70;;;;;;5031923;28;20484;-66
2021/07/03 04:07:12;;;;;;;11.67;3.40;;;13.50;99.70;;;;;;5043442;28;20805;-65
2021/07/03 04:09:38;;;;;;;7.23;3.43;;;13.50;99.70;;;;;;5052125;28;20472;-66
2021/07/03 04:12:06;;;;;;;8.00;4.27;;;13.50;99.70;;;;;;5041689;28;20456;-65
2021/07/03 04:14:34;;;;;;;10.70;4.83;;;13.50;99.70;;;;;;5031836;28;20797;-65
2021/07/03 04:17:01;;;;;;;8.77;3.57;;;13.40;99.70;;;;;;5041152;28;20481;-65
2021/07/03 04:19:28;;;;;;;10.10;3.33;;;13.50;99.70;;;;;;5051907;28;21150;-65
2021/07/03 04:21:54;;;;;;;8.30;3.37;;;13.60;99.70;;;;;;5044166;28;20445;-65
2021/07/03 04:24:21;;;;;;;5.00;2.80;;;13.70;99.70;;;;;;5031512;28;20481;-65
2021/07/03 04:26:48;;;;;;;5.57;2.80;;;13.70;99.70;;;;;;5038089;28;20467;-66
2021/07/03 04:29:15;;;;;;;9.43;3.37;;;13.70;99.70;;;;;;5051604;28;20475;-66
2021/07/03 04:31:43;;;;;;;9.80;3.27;;;13.80;99.70;;;;;;5050371;28;20444;-66
2021/07/03 04:34:10;;;;;;;8.33;3.63;;;13.80;99.70;;;;;;5051377;28;20447;-65
2021/07/03 04:36:36;;;;;;;6.80;3.53;;;13.80;99.70;;;;;;5045627;28;20953;-65
2021/07/03 04:39:04;;;;;;;9.03;3.83;;;14.00;99.70;;;;;;5031559;28;20851;-66
2021/07/03 04:41:30;;;;;;;7.60;3.50;;;14.00;99.70;;;;;;5035872;28;20450;-65
2021/07/03 04:43:58;;;;;;;12.73;3.10;;;14.20;99.70;;;;;;5051487;28;20452;-65
2021/07/03 04:46:25;;;;;;;11.23;3.73;;;14.30;99.70;;;;;;5047956;28;20571;-66
2021/07/03 04:48:53;;;;;;;9.17;3.87;;;14.20;99.70;;;;;;5031554;28;20468;-66
2021/07/03 04:51:19;;;;;;;7.43;3.10;;;14.10;99.70;;;;;;5033092;28;20444;-65
2021/07/03 04:53:46;;;;;;;7.27;3.30;;;14.20;99.70;;;;;;5050589;28;20447;-65
2021/07/03 04:56:13;;;;;;;7.37;3.87;;;14.30;99.70;;;;;;5049884;28;20447;-65
2021/07/03 04:58:39;;;;;;;7.90;3.90;;;14.20;99.70;;;;;;5031365;28;20973;-65
2021/07/03 05:01:06;;;;;;;8.90;4.10;;;14.30;99.70;;;;;;5031343;28;20452;-66
2021/07/03 05:03:33;;;;;;;9.50;3.73;;;14.50;99.70;;;;;;5050701;28;20452;-66
2021/07/03 05:06:01;;;;;;;9.53;3.50;;;14.40;99.70;;;;;;5050681;28;20514;-65
2021/07/03 05:08:27;;;;;;;10.57;4.03;;;14.50;99.70;;;;;;5051159;28;20459;-66
2021/07/03 05:10:54;;;;;;;8.00;3.43;;;14.40;99.70;;;;;;5048582;28;20454;-66
2021/07/03 05:13:21;;;;;;;8.13;3.83;;;14.50;99.70;;;;;;5048042;28;20500;-66
2021/07/03 05:15:48;;;;;;;9.60;3.70;;;14.50;99.70;;;;;;5050468;28;20435;-65
2021/07/03 05:18:15;;;;;;;9.27;3.60;;;14.60;99.70;;;;;;5034677;28;21062;-66
2021/07/03 05:20:41;;;;;;;7.80;3.90;;;14.70;99.70;;;;;;5030676;28;20464;-66
2021/07/03 05:23:09;;;;;;;10.10;3.87;;;14.80;99.70;;;;;;5047228;28;20448;-66
2021/07/03 05:25:40;;;;;;;8.17;3.50;;;14.80;99.70;;;;;;5047754;28;20482;-66
2021/07/03 05:28:07;;;;;;;7.33;3.30;;;14.90;99.70;;;;;;5048462;28;20498;-66
2021/07/03 05:30:33;;;;;;;9.50;3.67;;;14.90;99.70;;;;;;5050317;28;20446;-66
2021/07/03 05:33:00;;;;;;;10.97;3.80;;;15.10;99.70;;;;;;5048187;28;20451;-66
2021/07/03 05:35:27;;;;;;;8.90;3.60;;;15.10;99.70;;;;;;5050023;28;20436;-66
2021/07/03 05:37:54;;;;;;;10.20;4.70;;;15.10;99.70;;;;;;5034417;28;20445;-66
2021/07/03 05:40:22;;;;;;;7.33;3.70;;;15.10;99.70;;;;;;5030282;28;20539;-66
2021/07/03 05:42:49;;;;;;;6.93;3.17;;;15.30;99.70;;;;;;5043735;28;20456;-66
2021/07/03 05:45:16;;;;;;;7.60;3.47;;;15.30;99.70;;;;;;5048236;28;20861;-66
2021/07/03 05:47:50;;;;;;;6.13;3.10;;;15.40;99.70;;;;;;5034660;28;20464;-66
2021/07/03 05:50:17;;;;;;;7.97;5.00;;;15.50;99.70;;;;;;5046189;28;20471;-66
2021/07/03 05:52:44;;;;;;;9.67;3.40;;;15.70;99.70;;;;;;5042874;28;20490;-66
2021/07/03 05:55:12;;;;;;;8.83;3.90;;;15.70;99.70;;;;;;5046168;28;20505;-66
2021/07/03 05:57:40;;;;;;;5.17;3.30;;;15.80;99.70;;;;;;5035781;28;20527;-65
2021/07/03 06:00:08;;;;;;;7.83;2.97;;;15.90;99.70;;;;;;5030069;28;20476;-65
2021/07/03 06:02:35;;;;;;;7.40;3.77;;;15.90;99.70;;;;;;5040594;28;20953;-66
2021/07/03 06:05:02;;;;;;;7.13;3.50;;;15.90;99.70;;;;;;5049523;28;20488;-66
2021/07/03 06:07:29;;;;;;;12.00;3.67;;;16.10;99.70;;;;;;5039952;28;20452;-66
2021/07/03 06:09:55;;;;;;;7.70;3.70;;;16.30;99.70;;;;;;5030082;28;20537;-66
2021/07/03 06:12:22;;;;;;;8.07;3.67;;;16.50;99.70;;;;;;5046355;28;20447;-66
2021/07/03 06:14:50;;;;;;;7.60;3.57;;;16.60;99.70;;;;;;5049463;28;20970;-66
2021/07/03 06:17:17;;;;;;;7.70;3.20;;;16.60;99.70;;;;;;5046003;28;20453;-66
2021/07/03 06:19:44;;;;;;;6.77;3.50;;;16.60;99.70;;;;;;5044812;28;20473;-66
2021/07/03 06:22:12;;;;;;;6.60;3.40;;;16.80;99.70;;;;;;5034883;28;20476;-66
2021/07/03 06:24:39;;;;;;;8.60;3.30;;;17.00;99.70;;;;;;5047098;28;20491;-66
2021/07/03 06:27:06;;;;;;;7.03;3.20;;;17.40;99.70;;;;;;5042767;28;20463;-66
2021/07/03 06:29:34;;;;;;;5.50;3.30;;;18.00;99.70;;;;;;5040866;28;20487;-66
2021/07/03 06:32:02;;;;;;;7.50;3.30;;;18.80;99.70;;;;;;5045824;28;20812;-66
2021/07/03 06:34:29;;;;;;;10.40;3.37;;;19.70;99.70;;;;;;5049251;28;20879;-67
2021/07/03 06:36:56;;;;;;;8.47;3.77;;;19.80;99.70;;;;;;5041648;28;20964;-67
2021/07/03 06:39:22;;;;;;;8.43;3.97;;;20.20;99.70;;;;;;5030014;28;20460;-66
2021/07/03 06:41:49;;;;;;;9.37;4.13;;;20.60;99.70;;;;;;5035309;28;20462;-66
2021/07/03 06:44:16;;;;;;;7.40;4.00;;;21.20;99.70;;;;;;5045838;28;20454;-66
2021/07/03 06:46:43;;;;;;;4.67;3.40;;;21.30;99.70;;;;;;5043984;28;20213;-67
2021/07/03 06:49:11;;;;;;;7.03;3.77;;;21.30;99.70;;;;;;5032763;28;20221;-68
2021/07/03 06:51:38;;;;;;;6.60;3.42;;;22.00;99.70;;;;;;5049465;28;20208;-67
2021/07/03 06:54:05;;;;;;;5.43;3.42;;;22.30;99.70;;;;;;5030224;28;20198;-67
2021/07/03 06:56:32;;;;;;;11.07;3.83;;;22.70;99.70;;;;;;5036806;28;20201;-67
2021/07/03 06:58:58;;;;;;;5.72;3.47;;;22.70;99.70;;;;;;5048697;28;20571;-67
2021/07/03 07:01:25;;;;;;;4.60;3.08;;;22.40;99.70;;;;;;5046069;28;20227;-67
2021/07/03 07:03:52;;;;;;;6.13;3.38;;;22.70;98.70;;;;;;5029626;28;20579;-67
2021/07/03 07:06:20;;;;;;;6.28;3.50;;;22.40;99.70;;;;;;5048199;28;20224;-67
2021/07/03 07:08:46;;;;;;;6.85;3.80;;;22.70;99.70;;;;;;5048798;28;20589;-67
2021/07/03 07:11:13;;;;;;;6.28;3.67;;;22.70;99.70;;;;;;5031986;28;20209;-67
2021/07/03 07:13:40;;;;;;;5.67;3.57;;;22.50;99.70;;;;;;5033149;28;20205;-67
2021/07/03 07:16:07;;;;;;;6.80;3.63;;;22.10;99.70;;;;;;5038841;28;20580;-67
2021/07/03 07:18:33;;;;;;;6.50;3.80;;;22.50;99.70;;;;;;5032931;28;20217;-67
2021/07/03 07:21:00;;;;;;;7.17;3.67;;;22.70;99.70;;;;;;5050063;28;20566;-67
2021/07/03 07:23:28;;;;;;;4.93;3.10;;;22.80;99.70;;;;;;5045485;28;20213;-66
2021/07/03 07:25:55;;;;;;;8.33;4.17;;;21.60;99.70;;;;;;5052533;28;20286;-66
2021/07/03 07:28:21;;;;;;;7.73;3.60;;;21.00;99.70;;;;;;5034647;28;21169;-66
2021/07/03 07:30:48;;;;;;;6.63;3.50;;;20.90;99.70;;;;;;5032550;28;20454;-66
2021/07/03 07:33:15;;;;;;;6.83;3.40;;;21.00;99.70;;;;;;5033579;28;20455;-66
2021/07/03 07:35:43;;;;;;;3.97;3.00;;;21.10;99.70;;;;;;5032203;28;20964;-66
2021/07/03 07:38:10;;;;;;;6.90;3.50;;;21.00;99.70;;;;;;5047612;28;20462;-66
2021/07/03 07:40:38;;;;;;;8.47;3.63;;;21.10;99.70;;;;;;5052595;28;20450;-66
2021/07/03 07:43:04;;;;;;;5.90;2.93;;;21.30;99.70;;;;;;5037866;28;20449;-67
2021/07/03 07:45:31;;;;;;;5.13;2.50;;;21.30;99.70;;;;;;5043376;28;20489;-66
2021/07/03 07:47:58;;;;;;;5.90;3.47;;;21.10;99.70;;;;;;5037743;28;20475;-66
2021/07/03 07:50:25;;;;;;;6.83;3.20;;;21.00;99.70;;;;;;5052162;28;20458;-66
2021/07/03 07:52:51;;;;;;;6.70;3.27;;;21.10;99.70;;;;;;5048312;28;20456;-66
2021/07/03 07:55:18;;;;;;;6.80;3.00;;;21.20;99.70;;;;;;5051431;28;20458;-66
2021/07/03 07:57:46;;;;;;;7.37;3.40;;;21.10;99.70;;;;;;5040166;28;20507;-66
2021/07/03 08:00:16;;;;;;;6.43;3.20;;;21.10;99.70;;;;;;5034396;28;20529;-66
2021/07/03 08:02:43;;;;;;;5.47;3.17;;;20.90;99.70;;;;;;5044596;28;21183;-66
2021/07/03 08:05:11;;;;;;;5.97;3.53;;;20.60;99.70;;;;;;5036093;28;20459;-66
2021/07/03 08:07:37;;;;;;;8.43;3.47;;;20.70;99.70;;;;;;5035069;28;20859;-66
2021/07/03 08:10:05;;;;;;;7.93;3.50;;;20.80;99.70;;;;;;5038775;28;20472;-66
2021/07/03 08:12:32;;;;;;;6.57;3.13;;;20.80;99.70;;;;;;5045316;28;20475;-67
2021/07/03 08:15:00;;;;;;;6.43;3.60;;;20.80;99.70;;;;;;5033849;28;20441;-66
2021/07/03 08:17:27;;;;;;;7.53;3.20;;;20.80;99.70;;;;;;5049336;28;20444;-66
2021/07/03 08:19:53;;;;;;;5.40;3.07;;;20.90;99.70;;;;;;5050971;28;20831;-66
2021/07/03 08:22:20;;;;;;;6.83;3.50;;;20.80;99.70;;;;;;5048363;28;20829;-66
2021/07/03 08:24:47;;;;;;;7.47;3.17;;;20.90;99.70;;;;;;5051547;28;20459;-67
2021/07/03 08:27:14;;;;;;;8.23;3.50;;;21.00;99.70;;;;;;5046135;28;20476;-66
2021/07/03 08:29:40;;;;;;;9.63;3.60;;;20.90;99.70;;;;;;5035773;28;20871;-66
2021/07/03 08:32:09;;;;;;;7.90;3.63;;;21.10;99.70;;;;;;5041079;28;20459;-67
2021/07/03 08:34:35;;;;;;;9.33;3.90;;;21.20;99.70;;;;;;5044004;28;20452;-66
2021/07/03 08:37:02;;;;;;;7.07;3.10;;;21.00;99.70;;;;;;5042500;28;20452;-66
2021/07/03 08:39:29;;;;;;;7.20;3.10;;;21.00;99.70;;;;;;5032832;28;20468;-66
2021/07/03 08:41:56;;;;;;;5.67;3.20;;;21.20;99.70;;;;;;5032642;28;20514;-66
2021/07/03 08:44:22;;;;;;;7.10;3.23;;;21.20;99.70;;;;;;5037490;28;20455;-66
2021/07/03 08:46:49;;;;;;;8.67;3.63;;;21.30;99.70;;;;;;5039846;28;21031;-66
2021/07/03 08:49:17;;;;;;;7.00;2.87;;;21.20;99.70;;;;;;5041530;28;20477;-66
2021/07/03 08:51:47;;;;;;;8.43;3.83;;;21.40;99.70;;;;;;5032172;28;20968;-66
2021/07/03 08:54:13;;;;;;;6.20;3.33;;;21.30;99.70;;;;;;5046762;28;20443;-66
2021/07/03 08:56:40;;;;;;;7.17;3.20;;;21.50;99.70;;;;;;5050525;28;20499;-66
2021/07/03 08:59:15;;;;;;;8.30;3.40;;;21.70;97.50;;;;;;5047210;28;20487;-66
2021/07/03 09:01:48;;;;;;;6.60;3.30;;;21.70;99.40;;;;;;5039059;28;20884;-66
2021/07/03 09:04:16;;;;;;;5.53;3.30;;;21.70;97.50;;;;;;5036673;28;20453;-66
2021/07/03 09:06:43;;;;;;;6.00;2.80;;;21.80;99.70;;;;;;5041786;28;20483;-66
2021/07/03 09:09:10;;;;;;;5.60;3.20;;;21.90;99.70;;;;;;5031736;28;20469;-67
2021/07/03 09:11:37;;;;;;;4.47;2.60;;;21.70;98.80;;;;;;5041735;28;20459;-66
2021/07/03 09:14:07;;;;;;;5.80;3.13;;;22.00;96.50;;;;;;5047773;28;20471;-64
2021/07/03 09:16:36;;;;;;;4.70;3.10;;;22.00;98.10;;;;;;5046119;28;20507;-66
2021/07/03 09:19:03;;;;;;;5.57;2.97;;;21.80;99.70;;;;;;5044962;28;20460;-66
2021/07/03 09:21:32;;;;;;;6.97;3.40;;;21.90;95.90;;;;;;5035072;28;20459;-66
2021/07/03 09:24:01;;;;;;;5.50;2.67;;;21.80;99.70;;;;;;5030559;28;20441;-65
2021/07/03 09:26:28;;;;;;;5.30;2.93;;;21.90;99.70;;;;;;5039226;28;20992;-66
2021/07/03 09:28:55;;;;;;;5.80;2.70;;;21.90;99.10;;;;;;5046303;28;20472;-67
2021/07/03 09:31:22;;;;;;;4.97;2.50;;;22.00;98.50;;;;;;5030069;28;20448;-67
2021/07/03 09:33:50;;;;;;;7.33;2.63;;;22.10;97.60;;;;;;5041139;28;20517;-67
2021/07/03 09:36:25;;;;;;;5.70;2.90;;;22.40;97.60;;;;;;5048366;28;20436;-66
2021/07/03 09:38:54;;;;;;;5.63;2.93;;;23.20;93.50;;;;;;5048648;28;21173;-66
2021/07/03 09:41:23;;;;;;;5.70;3.00;;;24.10;90.80;;;;;;5048593;28;20455;-67
2021/07/03 09:43:57;;;;;;;4.70;2.83;;;24.40;89.40;;;;;;5048565;28;20979;-67
2021/07/03 09:46:24;;;;;;;5.40;2.63;;;24.80;89.70;;;;;;5039292;28;20738;-67
2021/07/03 09:48:53;;;;;;;5.03;2.80;;;24.80;89.20;;;;;;5036139;28;20237;-67
2021/07/03 09:51:25;;;;;;;3.10;2.22;;;25.10;87.30;;;;;;5049077;28;20247;-66
2021/07/03 09:53:54;;;;;;;4.90;2.65;;;25.50;82.10;;;;;;5033872;28;20193;-67
2021/07/03 09:56:21;;;;;;;6.22;2.72;;;25.60;81.50;;;;;;5040258;28;20751;-67
2021/07/03 09:58:48;;;;;;;5.00;2.60;;;26.20;81.10;;;;;;5038818;28;20219;-67
2021/07/03 10:01:15;;;;;;;3.38;2.70;;;25.90;81.20;;;;;;5050179;28;20211;-67
2021/07/03 10:03:42;;;;;;;4.13;2.80;;;25.70;82.80;;;;;;5048130;28;20259;-67
2021/07/03 10:06:13;;;;;;;5.53;3.03;;;25.60;85.00;;;;;;5037983;28;20213;-67
2021/07/03 10:08:44;;;;;;;3.88;2.63;;;25.90;85.50;;;;;;5030765;28;20221;-67
2021/07/03 10:11:16;;;;;;;4.63;2.80;;;25.80;83.20;;;;;;5029936;28;20682;-67
2021/07/03 10:13:44;;;;;;;4.13;2.65;;;26.50;79.90;;;;;;5046865;28;20189;-67
2021/07/03 10:16:13;;;;;;;4.50;2.72;;;26.60;80.70;;;;;;5036475;28;20224;-67
2021/07/03 10:18:40;;;;;;;5.20;2.85;;;26.30;84.50;;;;;;5049945;28;20232;-67
2021/07/03 10:21:09;;;;;;;5.13;2.97;;;25.90;83.30;;;;;;5043949;28;20460;-66
2021/07/03 10:23:37;;;;;;;4.77;2.83;;;25.70;88.20;;;;;;5037772;28;20189;-66
2021/07/03 10:26:04;;;;;;;9.50;2.93;;;25.60;83.70;;;;;;5029288;28;20197;-66
2021/07/03 10:28:34;;;;;;;5.60;2.90;;;25.40;84.60;;;;;;5048802;28;20224;-66
2021/07/03 10:31:08;;;;;;;4.47;2.50;;;24.80;87.60;;;;;;5049681;28;20442;-66
2021/07/03 10:33:46;;;;;;;4.30;2.70;;;24.90;85.90;;;;;;5033902;28;20468;-67
2021/07/03 10:36:24;;;;;;;3.43;2.73;;;24.70;89.20;;;;;;5047339;28;20827;-66
2021/07/03 10:38:51;;;;;;;6.43;2.77;;;24.50;88.10;;;;;;5049744;28;20467;-66
2021/07/03 10:41:22;;;;;;;4.33;2.30;;;24.30;90.50;;;;;;5043830;28;20525;-66
2021/07/03 10:43:52;;;;;;;4.70;2.60;;;24.20;92.30;;;;;;5048683;28;20459;-66
2021/07/03 10:46:27;;;;;;;4.70;2.97;;;24.20;89.70;;;;;;5037410;28;20471;-66
2021/07/03 10:48:58;;;;;;;4.67;3.00;;;24.00;86.70;;;;;;5033661;28;20517;-67
2021/07/03 10:51:39;;;;;;;4.90;3.00;;;23.80;87.90;;;;;;5045440;28;20439;-66
2021/07/03 10:54:16;;;;;;;6.77;3.20;;;23.50;88.70;;;;;;5032617;28;20436;-66
2021/07/03 10:56:49;;;;;;;6.10;2.90;;;23.60;86.00;;;;;;5035639;28;20527;-67
2021/07/03 10:59:24;;;;;;;4.30;2.43;;;23.60;87.90;;;;;;5050739;28;20829;-66
2021/07/03 11:01:53;;;;;;;5.50;2.60;;;23.50;89.50;;;;;;5052166;28;21027;-67
2021/07/03 11:04:21;;;;;;;6.20;2.60;;;23.70;89.50;;;;;;5035902;28;20953;-66
2021/07/03 11:06:50;;;;;;;5.30;2.90;;;23.80;90.90;;;;;;5038910;28;20479;-66
2021/07/03 11:09:22;;;;;;;4.50;2.60;;;23.90;90.40;;;;;;5048470;28;20460;-66
2021/07/03 11:11:49;;;;;;;4.63;2.37;;;23.80;84.00;;;;;;5043890;28;20472;-66
2021/07/03 11:14:21;;;;;;;4.43;2.60;;;23.80;81.40;;;;;;5052377;28;20447;-66
2021/07/03 11:16:53;;;;;;;5.90;2.77;;;23.80;83.80;;;;;;5048530;28;21118;-66
2021/07/03 11:19:23;;;;;;;4.43;2.40;;;23.60;86.70;;;;;;5033107;28;20468;-66
2021/07/03 11:21:50;;;;;;;4.63;2.33;;;23.60;92.40;;;;;;5035429;28;20443;-66
2021/07/03 11:24:17;;;;;;;4.67;2.43;;;23.60;87.50;;;;;;5051558;28;20443;-66
2021/07/03 11:26:44;;;;;;;3.20;2.17;;;23.70;90.10;;;;;;5038753;28;20495;-66
2021/07/03 11:29:10;;;;;;;4.93;2.53;;;23.60;89.20;;;;;;5042201;28;20918;-67
2021/07/03 11:31:39;;;;;;;5.60;2.57;;;23.60;90.70;;;;;;5035932;28;20498;-67
2021/07/03 11:34:05;;;;;;;4.13;2.37;;;23.50;91.70;;;;;;5049017;28;20456;-66
2021/07/03 11:36:32;;;;;;;5.33;2.93;;;23.40;92.00;;;;;;5042632;28;20445;-67
2021/07/03 11:39:00;;;;;;;3.43;2.30;;;23.30;90.60;;;;;;5040333;28;20656;-66
2021/07/03 11:41:28;;;;;;;4.20;2.20;;;23.10;85.70;;;;;;5039138;28;20963;-66
2021/07/03 11:44:02;;;;;;;4.73;2.37;;;23.10;84.70;;;;;;5037071;28;20973;-66
2021/07/03 11:46:29;;;;;;;4.30;2.30;;;23.40;81.70;;;;;;5035269;28;21196;-66
2021/07/03 11:49:00;;;;;;;5.90;3.17;;;23.40;84.70;;;;;;5040205;28;20471;-68
2021/07/03 11:51:26;;;;;;;4.20;2.40;;;23.40;88.10;;;;;;5041449;28;20872;-66
2021/07/03 11:53:54;;;;;;;6.20;2.20;;;23.30;89.80;;;;;;5038910;28;20458;-66
2021/07/03 11:56:22;;;;;;;4.53;2.33;;;23.20;88.10;;;;;;5050257;28;20436;-66
2021/07/03 11:58:51;;;;;;;3.40;2.10;;;23.30;83.00;;;;;;5041937;28;20503;-67
2021/07/03 12:01:19;;;;;;;4.50;2.43;;;23.40;83.20;;;;;;5039900;28;20449;-66
2021/07/03 12:03:48;;;;;;;5.07;2.50;;;23.40;87.10;;;;;;5041386;28;20459;-66
2021/07/03 12:06:21;;;;;;;5.23;2.50;;;23.40;88.70;;;;;;5039842;28;20448;-66
2021/07/03 12:08:50;;;;;;;4.00;2.30;;;23.30;87.50;;;;;;5040611;28;20459;-66
2021/07/03 12:11:18;;;;;;;4.37;2.20;;;23.30;84.10;;;;;;5041597;28;20971;-66
2021/07/03 12:13:49;;;;;;;3.43;2.17;;;23.40;82.90;;;;;;5040483;28;20440;-66
2021/07/03 12:16:19;;;;;;;4.50;2.30;;;23.40;82.30;;;;;;5040904;28;20445;-66
2021/07/03 12:18:49;;;;;;;5.90;2.77;;;23.30;82.40;;;;;;5039093;28;20547;-66
2021/07/03 12:21:19;;;;;;;3.80;2.30;;;23.30;87.40;;;;;;5031854;28;20735;-66
2021/07/03 12:23:55;;;;;;;4.00;2.20;;;23.40;88.80;;;;;;5032015;28;20437;-66
2021/07/03 12:26:24;;;;;;;5.90;2.37;;;23.40;88.50;;;;;;5031564;28;20457;-66
2021/07/03 12:28:53;;;;;;;4.23;2.20;;;23.20;86.90;;;;;;5040136;28;20486;-66
2021/07/03 12:31:23;;;;;;;4.63;2.40;;;23.20;87.60;;;;;;5049803;28;20868;-66
2021/07/03 12:34:00;;;;;;;5.40;2.67;;;23.20;85.20;;;;;;5039522;28;20460;-67
2021/07/03 12:36:28;;;;;;;5.27;2.50;;;23.30;88.90;;;;;;5041448;28;20447;-67
2021/07/03 12:39:04;;;;;;;5.00;2.40;;;23.30;90.90;;;;;;5045214;28;20467;-67
2021/07/03 12:41:31;;;;;;;3.90;2.13;;;23.40;84.80;;;;;;5041157;28;20963;-67
2021/07/03 12:43:59;;;;;;;3.80;2.13;;;23.50;84.10;;;;;;5037703;28;20469;-66
2021/07/03 12:46:30;;;;;;;4.47;2.30;;;23.60;82.50;;;;;;5041068;28;20448;-66
2021/07/03 12:48:56;;;;;;;6.00;2.63;;;23.70;85.80;;;;;;5038934;28;20511;-67